Terminal Aerodrome Forecast
Issued by NWS

Home | Current Version | Previous Version | Graphics & Text | Print | Product List | Glossary On
Versions: 1 2 3 4 5 6 7 8 9 10 11 12 13 14 15 16
841
FTUS43 KMPX 072325
TAFRNH
TAF
KRNH 072325Z 0800/0824 29015G24KT 5SM -SN BLSN OVC020
      TEMPO 0800/0804 2SM -SN BLSN
     FM080400 31019G30KT 2SM -SN BLSN OVC015
     FM081400 33020G32KT 4SM BLSN OVC020
     FM082000 33019G27KT P6SM BKN020=

USA.gov is the U.S. government's official web portal to all federal, state and local government web resources and services.